createdAt,value
2019-04-10T00:00:32.284Z,18.50
2019-04-10T00:01:31.994Z,18.50
2019-04-10T00:02:29.487Z,18.50
2019-04-10T00:03:32.885Z,18.50
2019-04-10T00:04:25.222Z,18.50
2019-04-10T00:05:22.033Z,18.50
2019-04-10T00:06:18.746Z,18.50
2019-04-10T00:07:18.078Z,18.50
2019-04-10T00:08:14.312Z,18.50
2019-04-10T00:09:11.071Z,18.50
2019-04-10T00:10:08.180Z,18.50
2019-04-10T00:11:04.798Z,18.50
2019-04-10T00:12:01.496Z,18.50
2019-04-10T00:12:58.313Z,18.50
2019-04-10T00:13:55.355Z,18.50
2019-04-10T00:14:52.553Z,18.50
2019-04-10T00:15:49.349Z,18.50
2019-04-10T00:16:46.701Z,18.50
2019-04-10T00:17:43.472Z,18.50
2019-04-10T00:18:40.148Z,18.44
2019-04-10T00:19:37.934Z,18.50
2019-04-10T00:20:34.714Z,18.50
2019-04-10T00:21:31.404Z,18.44
2019-04-10T00:22:28.471Z,18.44
2019-04-10T00:23:25.246Z,18.44
2019-04-10T00:24:22.016Z,18.44
2019-04-10T00:25:18.904Z,18.44
2019-04-10T00:26:15.669Z,18.44
2019-04-10T00:27:12.518Z,18.44
2019-04-10T00:28:09.519Z,18.44
2019-04-10T00:29:06.304Z,18.44
2019-04-10T00:30:02.991Z,18.44
2019-04-10T00:30:59.768Z,18.44
2019-04-10T00:31:56.472Z,18.50
2019-04-10T00:32:54.334Z,18.44
2019-04-10T00:33:51.405Z,18.44
2019-04-10T00:34:48.250Z,18.44
2019-04-10T00:35:45.718Z,18.44
2019-04-10T00:36:43.535Z,18.44
2019-04-10T00:37:40.835Z,18.44
2019-04-10T00:38:37.957Z,18.44
2019-04-10T00:39:34.890Z,18.44
2019-04-10T00:40:31.620Z,18.44
2019-04-10T00:41:28.324Z,18.44
2019-04-10T00:42:26.004Z,18.44
2019-04-10T00:43:22.973Z,18.44
2019-04-10T00:44:19.677Z,18.44
2019-04-10T00:45:17.387Z,18.44
2019-04-10T00:46:14.197Z,18.44
2019-04-10T00:47:10.923Z,18.44
2019-04-10T00:48:07.883Z,18.44
2019-04-10T00:49:05.080Z,18.44
2019-04-10T00:50:02.381Z,18.44
2019-04-10T00:50:59.274Z,18.44
2019-04-10T00:51:55.986Z,18.44
2019-04-10T00:52:52.688Z,18.44
2019-04-10T00:53:49.751Z,18.44
2019-04-10T00:54:46.868Z,18.44
2019-04-10T00:55:44.022Z,18.44
2019-04-10T00:56:41.783Z,18.44
2019-04-10T00:57:39.316Z,18.44
2019-04-10T00:58:37.428Z,18.44
2019-04-10T00:59:34.490Z,18.44
2019-04-10T01:00:31.200Z,18.44
2019-04-10T01:01:27.936Z,18.44
2019-04-10T01:02:24.810Z,18.44
2019-04-10T01:03:40.128Z,18.44
2019-04-10T01:04:36.784Z,18.44
2019-04-10T01:05:33.476Z,18.44
2019-04-10T01:06:30.388Z,18.44
2019-04-10T01:07:36.601Z,18.44
2019-04-10T01:08:26.659Z,18.44
2019-04-10T01:09:23.688Z,18.44
2019-04-10T01:10:20.407Z,18.44
2019-04-10T01:11:17.161Z,18.44
2019-04-10T01:12:13.945Z,18.44
2019-04-10T01:13:10.628Z,18.44
2019-04-10T01:14:07.554Z,18.44
2019-04-10T01:15:04.723Z,18.44
2019-04-10T01:16:01.468Z,18.37
2019-04-10T01:16:58.072Z,18.37
2019-04-10T01:17:54.800Z,18.37
2019-04-10T01:18:51.480Z,18.37
2019-04-10T01:19:48.220Z,18.37
2019-04-10T01:20:45.807Z,18.37
2019-04-10T01:21:42.716Z,18.37
2019-04-10T01:22:39.335Z,18.37
2019-04-10T01:23:37.923Z,18.44
2019-04-10T01:24:35.504Z,18.37
2019-04-10T01:25:32.565Z,18.37
2019-04-10T01:26:29.668Z,18.37
2019-04-10T01:27:26.480Z,18.37
2019-04-10T01:28:23.189Z,18.37
2019-04-10T01:29:19.899Z,18.37
2019-04-10T01:30:16.628Z,18.37
2019-04-10T01:31:13.328Z,18.37
2019-04-10T01:32:10.025Z,18.37
2019-04-10T01:33:06.728Z,18.37
2019-04-10T01:34:03.427Z,18.37
2019-04-10T01:35:00.269Z,18.37
2019-04-10T01:35:56.952Z,18.37
2019-04-10T01:36:54.609Z,18.37
2019-04-10T01:37:56.166Z,18.37
2019-04-10T01:38:49.877Z,18.37
2019-04-10T01:39:46.609Z,18.37
2019-04-10T01:40:43.476Z,18.37
2019-04-10T01:41:40.120Z,18.37
2019-04-10T01:42:36.899Z,18.37
2019-04-10T01:43:33.629Z,18.37
2019-04-10T01:44:30.932Z,18.37
2019-04-10T01:45:27.772Z,18.37
2019-04-10T01:46:24.480Z,18.37
2019-04-10T01:47:21.390Z,18.37
2019-04-10T01:48:18.105Z,18.37
2019-04-10T01:49:15.667Z,18.37
2019-04-10T01:50:12.486Z,18.37
2019-04-10T01:51:09.152Z,18.37
2019-04-10T01:52:06.834Z,18.37
2019-04-10T01:53:03.763Z,18.37
2019-04-10T01:54:00.625Z,18.37
2019-04-10T01:54:57.615Z,18.37
2019-04-10T01:55:55.459Z,18.37
2019-04-10T01:56:52.316Z,18.37
2019-04-10T01:57:49.633Z,18.37
2019-04-10T01:58:47.686Z,18.37
2019-04-10T01:59:44.472Z,18.37
2019-04-10T02:00:44.172Z,18.37
2019-04-10T02:01:53.704Z,18.37
2019-04-10T02:02:51.772Z,18.37
2019-04-10T02:03:48.665Z,18.37
2019-04-10T02:04:45.376Z,18.37
2019-04-10T02:05:42.860Z,18.37
2019-04-10T02:06:39.584Z,18.37
2019-04-10T02:07:36.292Z,18.37
2019-04-10T02:08:34.035Z,18.37
2019-04-10T02:09:31.676Z,18.37
2019-04-10T02:10:28.524Z,18.37
2019-04-10T02:11:25.951Z,18.37
2019-04-10T02:12:22.852Z,18.31
2019-04-10T02:13:19.576Z,18.37
2019-04-10T02:14:16.282Z,18.31
2019-04-10T02:15:14.492Z,18.37
2019-04-10T02:16:11.504Z,18.37
2019-04-10T02:17:08.486Z,18.31
2019-04-10T02:18:05.421Z,18.31
2019-04-10T02:19:02.146Z,18.31
2019-04-10T02:19:58.849Z,18.31
2019-04-10T02:20:55.687Z,18.31
2019-04-10T02:21:52.369Z,18.31
2019-04-10T02:22:49.890Z,18.31
2019-04-10T02:23:46.946Z,18.31
2019-04-10T02:24:43.813Z,18.31
2019-04-10T02:25:41.102Z,18.31
2019-04-10T02:26:38.106Z,18.31
2019-04-10T02:27:34.821Z,18.31
2019-04-10T02:28:31.536Z,18.31
2019-04-10T02:29:28.238Z,18.31
2019-04-10T02:30:26.162Z,18.31
2019-04-10T02:31:24.124Z,18.31
2019-04-10T02:32:21.868Z,18.31
2019-04-10T02:33:18.564Z,18.31
2019-04-10T02:34:17.096Z,18.31
2019-04-10T02:35:17.186Z,18.31
2019-04-10T02:36:13.038Z,18.31
2019-04-10T02:37:11.028Z,18.31
2019-04-10T02:38:27.479Z,18.31
2019-04-10T02:39:19.103Z,18.31
2019-04-10T02:40:07.135Z,18.31
2019-04-10T02:41:03.698Z,18.31
2019-04-10T02:42:00.613Z,18.31
2019-04-10T02:42:58.877Z,18.31
2019-04-10T02:43:55.851Z,18.31
2019-04-10T02:44:54.062Z,18.31
2019-04-10T02:45:51.274Z,18.31
2019-04-10T02:46:49.810Z,18.31
2019-04-10T02:47:47.485Z,18.31
2019-04-10T02:48:44.337Z,18.31
2019-04-10T02:49:42.126Z,18.31
2019-04-10T02:50:40.602Z,18.31
2019-04-10T02:51:38.700Z,18.31
2019-04-10T02:52:38.305Z,18.31
2019-04-10T02:53:35.075Z,18.31
2019-04-10T02:54:33.562Z,18.31
2019-04-10T02:55:31.388Z,18.31
2019-04-10T02:56:28.596Z,18.31
2019-04-10T02:57:25.522Z,18.31
2019-04-10T02:58:22.363Z,18.31
2019-04-10T02:59:20.953Z,18.31
2019-04-10T03:00:18.050Z,18.31
2019-04-10T03:01:15.702Z,18.31
2019-04-10T03:02:13.906Z,18.31
2019-04-10T03:03:12.009Z,18.31
2019-04-10T03:04:09.723Z,18.31
2019-04-10T03:05:09.239Z,18.31
2019-04-10T03:06:07.300Z,18.31
2019-04-10T03:07:04.514Z,18.31
2019-04-10T03:08:01.302Z,18.31
2019-04-10T03:09:09.550Z,18.31
2019-04-10T03:10:10.283Z,18.31
2019-04-10T03:11:00.430Z,18.31
2019-04-10T03:11:53.473Z,18.25
2019-04-10T03:12:50.218Z,18.31
2019-04-10T03:13:47.290Z,18.31
2019-04-10T03:14:46.997Z,18.31
2019-04-10T03:15:43.418Z,18.25
2019-04-10T03:16:40.324Z,18.25
2019-04-10T03:17:37.025Z,18.31
2019-04-10T03:18:33.733Z,18.25
2019-04-10T03:19:30.424Z,18.25
2019-04-10T03:20:27.132Z,18.25
2019-04-10T03:21:23.975Z,18.31
2019-04-10T03:22:20.834Z,18.25
2019-04-10T03:23:17.682Z,18.25
2019-04-10T03:24:14.389Z,18.25
2019-04-10T03:25:11.105Z,18.25
2019-04-10T03:26:07.712Z,18.25
2019-04-10T03:27:04.412Z,18.25
2019-04-10T03:28:01.141Z,18.25
2019-04-10T03:28:57.848Z,18.25
2019-04-10T03:29:54.553Z,18.25
2019-04-10T03:30:51.272Z,18.25
2019-04-10T03:31:49.890Z,18.25
2019-04-10T03:33:03.265Z,18.25
2019-04-10T03:34:13.121Z,18.25
2019-04-10T03:35:18.699Z,18.25
2019-04-10T03:36:15.663Z,18.25
2019-04-10T03:37:12.492Z,18.25
2019-04-10T03:38:09.830Z,18.25
2019-04-10T03:39:07.940Z,18.25
2019-04-10T03:40:05.136Z,18.25
2019-04-10T03:41:02.028Z,18.25
2019-04-10T03:41:58.828Z,18.25
2019-04-10T03:42:55.496Z,18.25
2019-04-10T03:43:52.247Z,18.25
2019-04-10T03:44:49.410Z,18.25
2019-04-10T03:45:46.707Z,18.25
2019-04-10T03:46:43.416Z,18.25
2019-04-10T03:47:40.037Z,18.25
2019-04-10T03:48:36.810Z,18.25
2019-04-10T03:49:33.934Z,18.25
2019-04-10T03:50:30.660Z,18.25
2019-04-10T03:51:28.308Z,18.25
2019-04-10T03:52:25.330Z,18.25
2019-04-10T03:53:22.314Z,18.25
2019-04-10T03:54:20.763Z,18.25
2019-04-10T03:55:17.510Z,18.25
2019-04-10T03:56:14.230Z,18.25
2019-04-10T03:57:12.049Z,18.25
2019-04-10T03:58:09.309Z,18.25
2019-04-10T03:59:06.276Z,18.25
2019-04-10T04:00:03.672Z,18.25
2019-04-10T04:01:00.764Z,18.25
2019-04-10T04:01:57.582Z,18.25
2019-04-10T04:02:54.268Z,18.25
2019-04-10T04:03:51.138Z,18.25
2019-04-10T04:04:48.058Z,18.25
2019-04-10T04:05:44.701Z,18.25
2019-04-10T04:06:42.017Z,18.25
2019-04-10T04:07:38.928Z,18.25
2019-04-10T04:08:35.649Z,18.25
2019-04-10T04:09:32.462Z,18.25
2019-04-10T04:10:29.148Z,18.25
2019-04-10T04:11:25.977Z,18.25
2019-04-10T04:12:22.756Z,18.25
2019-04-10T04:13:19.590Z,18.25
2019-04-10T04:14:16.549Z,18.25
2019-04-10T04:15:13.545Z,18.25
2019-04-10T04:16:10.857Z,18.25
2019-04-10T04:17:08.104Z,18.25
2019-04-10T04:18:04.828Z,18.19
2019-04-10T04:19:01.748Z,18.25
2019-04-10T04:19:58.817Z,18.19
2019-04-10T04:20:55.547Z,18.19
2019-04-10T04:21:52.390Z,18.19
2019-04-10T04:22:49.471Z,18.25
2019-04-10T04:23:46.847Z,18.19
2019-04-10T04:24:44.052Z,18.19
2019-04-10T04:25:40.833Z,18.19
2019-04-10T04:26:37.536Z,18.25
2019-04-10T04:27:34.232Z,18.19
2019-04-10T04:28:31.955Z,18.19
2019-04-10T04:29:28.780Z,18.19
2019-04-10T04:30:25.483Z,18.19
2019-04-10T04:31:22.868Z,18.19
2019-04-10T04:32:19.720Z,18.19
2019-04-10T04:33:16.393Z,18.19
2019-04-10T04:34:14.145Z,18.19
2019-04-10T04:35:11.219Z,18.19
2019-04-10T04:36:08.210Z,18.19
2019-04-10T04:37:05.023Z,18.19
2019-04-10T04:38:02.576Z,18.19
2019-04-10T04:38:59.994Z,18.19
2019-04-10T04:39:58.360Z,18.19
2019-04-10T04:40:55.077Z,18.19
2019-04-10T04:41:52.129Z,18.19
2019-04-10T04:42:49.397Z,18.19
2019-04-10T04:43:47.618Z,18.19
2019-04-10T04:44:45.410Z,18.19
2019-04-10T04:45:42.291Z,18.19
2019-04-10T04:46:39.049Z,18.19
2019-04-10T04:47:35.749Z,18.19
2019-04-10T04:48:32.455Z,18.19
2019-04-10T04:49:29.073Z,18.19
2019-04-10T04:50:26.863Z,18.19
2019-04-10T04:51:23.830Z,18.19
2019-04-10T04:52:20.529Z,18.19
2019-04-10T04:53:18.298Z,18.19
2019-04-10T04:54:15.148Z,18.19
2019-04-10T04:55:12.238Z,18.19
2019-04-10T04:56:09.497Z,18.19
2019-04-10T04:57:06.588Z,18.19
2019-04-10T04:58:04.082Z,18.19
2019-04-10T04:59:01.485Z,18.19
2019-04-10T04:59:58.982Z,18.19
2019-04-10T05:00:56.450Z,18.19
2019-04-10T05:01:53.112Z,18.19
2019-04-10T05:02:49.725Z,18.19
2019-04-10T05:03:46.432Z,18.19
2019-04-10T05:04:43.812Z,18.19
2019-04-10T05:05:41.176Z,18.19
2019-04-10T05:06:37.968Z,18.19
2019-04-10T05:07:35.497Z,18.19
2019-04-10T05:08:32.382Z,18.19
2019-04-10T05:09:35.639Z,18.19
2019-04-10T05:10:27.728Z,18.19
2019-04-10T05:11:24.563Z,18.19
2019-04-10T05:12:21.254Z,18.19
2019-04-10T05:13:18.017Z,18.19
2019-04-10T05:14:15.330Z,18.19
2019-04-10T05:15:12.975Z,18.19
2019-04-10T05:16:10.168Z,18.19
2019-04-10T05:17:07.964Z,18.19
2019-04-10T05:18:04.725Z,18.19
2019-04-10T05:19:01.749Z,18.19
2019-04-10T05:19:58.727Z,18.19
2019-04-10T05:20:55.436Z,18.19
2019-04-10T05:21:52.172Z,18.19
2019-04-10T05:22:49.472Z,18.19
2019-04-10T05:23:47.389Z,18.19
2019-04-10T05:24:44.621Z,18.19
2019-04-10T05:25:41.520Z,18.19
2019-04-10T05:26:38.228Z,18.19
2019-04-10T05:27:35.100Z,18.19
2019-04-10T05:28:32.663Z,18.19
2019-04-10T05:29:30.836Z,18.12
2019-04-10T05:30:29.136Z,18.12
2019-04-10T05:31:25.909Z,18.12
2019-04-10T05:32:23.438Z,18.12
2019-04-10T05:33:20.564Z,18.19
2019-04-10T05:34:17.801Z,18.12
2019-04-10T05:35:15.183Z,18.12
2019-04-10T05:36:13.191Z,18.12
2019-04-10T05:37:09.985Z,18.12
2019-04-10T05:38:06.672Z,18.12
2019-04-10T05:39:04.877Z,18.12
2019-04-10T05:40:01.620Z,18.12
2019-04-10T05:40:59.171Z,18.19
2019-04-10T05:41:56.824Z,18.12
2019-04-10T05:42:53.569Z,18.12
2019-04-10T05:43:50.961Z,18.12
2019-04-10T05:44:47.889Z,18.12
2019-04-10T05:45:44.596Z,18.12
2019-04-10T05:46:41.291Z,18.12
2019-04-10T05:47:38.795Z,18.12
2019-04-10T05:48:35.685Z,18.12
2019-04-10T05:49:33.160Z,18.12
2019-04-10T05:50:29.958Z,18.12
2019-04-10T05:51:26.663Z,18.12
2019-04-10T05:52:23.409Z,18.12
2019-04-10T05:53:20.409Z,18.12
2019-04-10T05:54:17.209Z,18.12
2019-04-10T05:55:13.962Z,18.12
2019-04-10T05:56:10.612Z,18.12
2019-04-10T05:57:08.234Z,18.12
2019-04-10T05:58:05.144Z,18.12
2019-04-10T05:59:02.930Z,18.12
2019-04-10T06:00:00.531Z,18.12
2019-04-10T06:00:59.183Z,18.12
2019-04-10T06:01:56.768Z,18.12
2019-04-10T06:02:54.252Z,18.12
2019-04-10T06:03:51.018Z,18.12
2019-04-10T06:04:47.720Z,18.12
2019-04-10T06:05:44.534Z,18.12
2019-04-10T06:06:41.344Z,18.12
2019-04-10T06:07:38.153Z,18.12
2019-04-10T06:08:35.189Z,18.12
2019-04-10T06:09:33.047Z,18.12
2019-04-10T06:10:30.121Z,18.12
2019-04-10T06:11:26.891Z,18.12
2019-04-10T06:12:24.328Z,18.06
2019-04-10T06:13:21.124Z,18.06
2019-04-10T06:14:18.524Z,18.06
2019-04-10T06:15:15.217Z,18.06
2019-04-10T06:16:11.943Z,18.00
2019-04-10T06:17:08.639Z,18.00
2019-04-10T06:18:05.377Z,17.94
2019-04-10T06:19:02.094Z,17.94
2019-04-10T06:19:58.784Z,17.87
2019-04-10T06:20:56.607Z,17.81
2019-04-10T06:21:54.280Z,17.69
2019-04-10T06:22:51.129Z,17.62
2019-04-10T06:23:47.836Z,17.56
2019-04-10T06:24:44.680Z,17.50
2019-04-10T06:25:43.039Z,17.44
2019-04-10T06:26:39.972Z,17.37
2019-04-10T06:27:36.771Z,17.31
2019-04-10T06:28:34.397Z,17.25
2019-04-10T06:29:31.301Z,17.19
2019-04-10T06:30:28.091Z,17.19
2019-04-10T06:31:24.952Z,17.12
2019-04-10T06:32:21.620Z,17.12
2019-04-10T06:33:18.252Z,17.06
2019-04-10T06:34:17.543Z,17.00
2019-04-10T06:35:13.591Z,17.00
2019-04-10T06:36:11.253Z,16.94
2019-04-10T06:37:08.149Z,16.94
2019-04-10T06:38:04.798Z,16.94
2019-04-10T06:39:02.578Z,16.87
2019-04-10T06:40:12.721Z,16.87
2019-04-10T06:40:57.932Z,16.87
2019-04-10T06:41:54.622Z,16.87
2019-04-10T06:42:53.916Z,16.87
2019-04-10T06:43:49.900Z,16.87
2019-04-10T06:44:46.613Z,16.94
2019-04-10T06:45:44.007Z,17.00
2019-04-10T06:46:41.700Z,17.12
2019-04-10T06:47:38.541Z,17.25
2019-04-10T06:48:36.258Z,17.44
2019-04-10T06:49:33.195Z,17.62
2019-04-10T06:50:30.499Z,17.87
2019-04-10T06:51:31.379Z,18.31
2019-04-10T06:52:28.055Z,23.25
2019-04-10T06:53:24.861Z,25.12
2019-04-10T06:54:22.665Z,24.94
2019-04-10T06:55:19.460Z,26.06
2019-04-10T06:56:16.662Z,28.00
2019-04-10T06:57:14.559Z,29.50
2019-04-10T06:58:11.686Z,30.19
2019-04-10T06:59:08.726Z,30.50
2019-04-10T07:00:06.460Z,30.88
2019-04-10T07:01:04.142Z,31.56
2019-04-10T07:02:13.981Z,32.25
2019-04-10T07:02:59.505Z,32.69
2019-04-10T07:04:02.084Z,32.94
2019-04-10T07:04:57.303Z,33.00
2019-04-10T07:06:07.241Z,32.94
2019-04-10T07:06:58.709Z,32.56
2019-04-10T07:07:54.611Z,31.81
2019-04-10T07:08:52.427Z,30.81
2019-04-10T07:09:47.483Z,29.63
2019-04-10T07:10:53.091Z,28.25
2019-04-10T07:11:42.880Z,27.44
2019-04-10T07:12:39.898Z,28.00
2019-04-10T07:13:39.896Z,29.37
2019-04-10T07:14:36.973Z,31.06
2019-04-10T07:15:33.632Z,32.56
2019-04-10T07:16:32.616Z,33.88
2019-04-10T07:17:29.245Z,34.94
2019-04-10T07:18:26.415Z,35.75
2019-04-10T07:19:24.135Z,36.31
2019-04-10T07:20:22.117Z,36.75
2019-04-10T07:21:20.067Z,36.75
2019-04-10T07:22:17.504Z,36.44
2019-04-10T07:23:19.159Z,36.06
2019-04-10T07:24:15.040Z,35.75
2019-04-10T07:25:12.870Z,35.50
2019-04-10T07:26:10.171Z,35.31
2019-04-10T07:27:07.815Z,35.13
2019-04-10T07:28:07.390Z,34.81
2019-04-10T07:29:03.104Z,34.44
2019-04-10T07:29:59.870Z,33.88
2019-04-10T07:30:59.426Z,33.19
2019-04-10T07:31:55.332Z,32.19
2019-04-10T07:32:52.948Z,31.12
2019-04-10T07:33:50.818Z,30.00
2019-04-10T07:34:48.729Z,29.12
2019-04-10T07:35:46.391Z,29.06
2019-04-10T07:36:44.819Z,30.12
2019-04-10T07:37:42.529Z,31.81
2019-04-10T07:38:39.353Z,33.56
2019-04-10T07:39:36.010Z,34.94
2019-04-10T07:40:36.110Z,35.56
2019-04-10T07:41:31.517Z,35.69
2019-04-10T07:42:33.913Z,35.63
2019-04-10T07:43:28.925Z,35.44
2019-04-10T07:44:25.369Z,35.19
2019-04-10T07:45:26.400Z,34.94
2019-04-10T07:46:20.478Z,34.50
2019-04-10T07:47:17.490Z,34.00
2019-04-10T07:48:14.188Z,33.31
2019-04-10T07:49:10.949Z,32.50
2019-04-10T07:50:08.708Z,31.56
2019-04-10T07:51:06.739Z,30.50
2019-04-10T07:52:03.979Z,29.50
2019-04-10T07:53:01.974Z,29.00
2019-04-10T07:53:59.702Z,29.50
2019-04-10T07:54:56.637Z,30.88
2019-04-10T07:56:02.368Z,32.56
2019-04-10T07:56:51.939Z,34.13
2019-04-10T07:57:49.979Z,35.19
2019-04-10T07:58:48.196Z,35.56
2019-04-10T07:59:45.291Z,35.56
2019-04-10T08:00:42.910Z,35.50
2019-04-10T08:01:40.678Z,35.19
2019-04-10T08:02:38.476Z,34.88
2019-04-10T08:03:35.321Z,34.44
2019-04-10T08:04:32.984Z,33.94
2019-04-10T08:05:29.862Z,33.25
2019-04-10T08:06:27.716Z,32.44
2019-04-10T08:07:30.010Z,31.56
2019-04-10T08:08:23.606Z,30.56
2019-04-10T08:09:20.954Z,29.63
2019-04-10T08:10:18.027Z,29.12
2019-04-10T08:11:15.474Z,29.56
2019-04-10T08:12:12.955Z,30.88
2019-04-10T08:13:10.637Z,32.56
2019-04-10T08:14:08.438Z,34.13
2019-04-10T08:15:05.477Z,35.19
2019-04-10T08:16:02.869Z,35.56
2019-04-10T08:16:59.631Z,35.56
2019-04-10T08:17:56.290Z,35.44
2019-04-10T08:18:54.118Z,35.13
2019-04-10T08:19:50.992Z,34.75
2019-04-10T08:20:48.660Z,34.31
2019-04-10T08:21:46.444Z,33.69
2019-04-10T08:22:43.267Z,33.06
2019-04-10T08:23:39.960Z,32.31
2019-04-10T08:24:36.564Z,31.50
2019-04-10T08:25:33.293Z,30.62
2019-04-10T08:26:30.423Z,29.81
2019-04-10T08:27:27.678Z,29.19
2019-04-10T08:28:24.409Z,29.31
2019-04-10T08:29:21.815Z,30.31
2019-04-10T08:30:19.563Z,31.81
2019-04-10T08:31:17.029Z,33.44
2019-04-10T08:32:13.938Z,34.75
2019-04-10T08:33:11.884Z,35.38
2019-04-10T08:34:08.860Z,35.44
2019-04-10T08:35:05.601Z,35.31
2019-04-10T08:36:03.250Z,35.00
2019-04-10T08:37:00.028Z,34.63
2019-04-10T08:37:57.025Z,34.13
2019-04-10T08:38:54.917Z,33.56
2019-04-10T08:39:52.664Z,32.94
2019-04-10T08:40:49.569Z,32.19
2019-04-10T08:41:46.268Z,31.44
2019-04-10T08:42:45.009Z,30.62
2019-04-10T08:43:41.727Z,29.81
2019-04-10T08:44:38.487Z,29.25
2019-04-10T08:45:43.932Z,29.25
2019-04-10T08:46:33.772Z,30.19
2019-04-10T08:47:31.342Z,31.69
2019-04-10T08:48:30.104Z,33.25
2019-04-10T08:49:26.660Z,34.69
2019-04-10T08:50:23.361Z,35.31
2019-04-10T08:51:21.366Z,35.44
2019-04-10T08:52:18.204Z,35.25
2019-04-10T08:53:14.914Z,34.94
2019-04-10T08:54:12.070Z,34.56
2019-04-10T08:55:10.014Z,34.06
2019-04-10T08:56:06.932Z,33.50
2019-04-10T08:57:03.664Z,32.88
2019-04-10T08:58:00.771Z,32.19
2019-04-10T08:58:57.485Z,31.50
2019-04-10T08:59:54.232Z,30.81
2019-04-10T09:00:52.568Z,30.19
2019-04-10T09:01:49.422Z,29.63
2019-04-10T09:02:46.439Z,29.19
2019-04-10T09:03:43.416Z,28.81
2019-04-10T09:04:41.268Z,28.44
2019-04-10T09:05:38.040Z,28.12
2019-04-10T09:06:35.617Z,27.75
2019-04-10T09:07:32.596Z,27.37
2019-04-10T09:08:29.292Z,27.06
2019-04-10T09:09:25.993Z,26.81
2019-04-10T09:10:22.701Z,26.62
2019-04-10T09:11:26.579Z,26.44
2019-04-10T09:12:17.935Z,26.31
2019-04-10T09:13:14.686Z,26.19
2019-04-10T09:14:11.352Z,26.06
2019-04-10T09:15:08.052Z,25.94
2019-04-10T09:16:04.769Z,25.88
2019-04-10T09:17:02.756Z,25.81
2019-04-10T09:17:59.821Z,25.69
2019-04-10T09:18:56.559Z,25.62
2019-04-10T09:19:54.074Z,25.56
2019-04-10T09:20:51.020Z,25.44
2019-04-10T09:21:47.981Z,25.37
2019-04-10T09:23:10.726Z,25.31
2019-04-10T09:23:50.478Z,25.25
2019-04-10T09:24:42.486Z,25.12
2019-04-10T09:25:39.473Z,25.06
2019-04-10T09:26:36.239Z,25.00
2019-04-10T09:27:33.716Z,24.94
2019-04-10T09:28:30.698Z,24.87
2019-04-10T09:29:27.895Z,24.81
2019-04-10T09:30:24.821Z,24.75
2019-04-10T09:31:21.805Z,24.69
2019-04-10T09:32:18.529Z,24.63
2019-04-10T09:33:21.549Z,24.50
2019-04-10T09:34:13.852Z,24.44
2019-04-10T09:35:10.658Z,24.44
2019-04-10T09:36:07.362Z,24.37
2019-04-10T09:37:04.088Z,24.31
2019-04-10T09:38:00.792Z,24.25
2019-04-10T09:38:57.508Z,24.19
2019-04-10T09:39:55.384Z,24.12
2019-04-10T09:40:53.288Z,24.06
2019-04-10T09:41:50.212Z,24.00
2019-04-10T09:42:47.973Z,23.94
2019-04-10T09:43:45.603Z,23.94
2019-04-10T09:44:42.293Z,23.87
2019-04-10T09:45:39.307Z,23.81
2019-04-10T09:46:36.013Z,23.75
2019-04-10T09:47:32.752Z,23.69
2019-04-10T09:48:29.626Z,23.62
2019-04-10T09:49:37.639Z,23.62
2019-04-10T09:50:26.146Z,23.56
2019-04-10T09:51:23.566Z,23.50
2019-04-10T09:52:20.308Z,23.44
2019-04-10T09:53:17.118Z,23.44
2019-04-10T09:54:13.812Z,23.38
2019-04-10T09:55:11.617Z,23.31
2019-04-10T09:56:09.459Z,23.31
2019-04-10T09:57:06.911Z,23.25
2019-04-10T09:58:03.690Z,23.19
2019-04-10T09:59:00.881Z,23.19
2019-04-10T09:59:57.756Z,23.12
2019-04-10T10:00:54.514Z,23.06
2019-04-10T10:01:51.423Z,23.06
2019-04-10T10:02:48.213Z,23.00
2019-04-10T10:03:44.936Z,22.94
2019-04-10T10:04:41.746Z,22.94
2019-04-10T10:05:39.114Z,22.87
2019-04-10T10:06:36.968Z,22.81
2019-04-10T10:07:34.798Z,22.81
2019-04-10T10:08:31.706Z,22.75
2019-04-10T10:09:29.250Z,22.69
2019-04-10T10:10:26.288Z,22.69
2019-04-10T10:11:22.984Z,22.62
2019-04-10T10:12:20.214Z,22.62
2019-04-10T10:13:17.249Z,22.56
2019-04-10T10:14:14.541Z,22.56
2019-04-10T10:15:11.436Z,22.50
2019-04-10T10:16:08.528Z,22.50
2019-04-10T10:17:06.429Z,22.44
2019-04-10T10:18:03.425Z,22.44
2019-04-10T10:19:00.142Z,22.37
2019-04-10T10:19:57.498Z,22.37
2019-04-10T10:20:54.318Z,22.31
2019-04-10T10:21:50.979Z,22.25
2019-04-10T10:22:47.689Z,22.25
2019-04-10T10:23:44.692Z,22.19
2019-04-10T10:24:42.544Z,22.19
2019-04-10T10:25:39.486Z,22.13
2019-04-10T10:26:36.497Z,22.13
2019-04-10T10:27:34.252Z,22.13
2019-04-10T10:28:31.182Z,22.06
2019-04-10T10:29:28.110Z,22.06
2019-04-10T10:30:25.143Z,22.00
2019-04-10T10:31:22.190Z,22.00
2019-04-10T10:32:19.217Z,21.94
2019-04-10T10:33:17.321Z,21.94
2019-04-10T10:34:14.346Z,21.87
2019-04-10T10:35:11.266Z,21.87
2019-04-10T10:36:08.108Z,21.81
2019-04-10T10:37:06.207Z,21.81
2019-04-10T10:38:03.933Z,21.75
2019-04-10T10:39:06.866Z,21.75
2019-04-10T10:39:59.668Z,21.75
2019-04-10T10:40:57.054Z,21.69
2019-04-10T10:41:54.443Z,21.69
2019-04-10T10:42:51.916Z,21.62
2019-04-10T10:43:48.861Z,21.62
2019-04-10T10:44:45.964Z,21.62
2019-04-10T10:45:42.883Z,21.56
2019-04-10T10:46:39.816Z,21.56
2019-04-10T10:47:36.541Z,21.56
2019-04-10T10:48:33.248Z,21.50
2019-04-10T10:49:30.653Z,21.50
2019-04-10T10:50:27.349Z,21.44
2019-04-10T10:51:24.065Z,21.44
2019-04-10T10:52:21.564Z,21.44
2019-04-10T10:53:18.295Z,21.37
2019-04-10T10:54:14.909Z,21.37
2019-04-10T10:55:11.681Z,21.37
2019-04-10T10:56:08.406Z,21.31
2019-04-10T10:57:05.142Z,21.31
2019-04-10T10:58:01.846Z,21.25
2019-04-10T10:58:58.963Z,21.25
2019-04-10T10:59:55.848Z,21.25
2019-04-10T11:00:53.602Z,21.25
2019-04-10T11:01:51.827Z,21.19
2019-04-10T11:02:49.774Z,21.19
2019-04-10T11:03:46.715Z,21.19
2019-04-10T11:04:43.458Z,21.12
2019-04-10T11:05:40.133Z,21.12
2019-04-10T11:06:49.490Z,21.12
2019-04-10T11:07:35.361Z,21.06
2019-04-10T11:08:32.240Z,21.06
2019-04-10T11:09:30.092Z,21.00
2019-04-10T11:10:27.634Z,21.00
2019-04-10T11:11:24.402Z,21.00
2019-04-10T11:12:21.974Z,21.00
2019-04-10T11:13:18.927Z,20.94
2019-04-10T11:14:15.644Z,20.94
2019-04-10T11:15:12.363Z,20.94
2019-04-10T11:16:09.344Z,20.94
2019-04-10T11:17:06.267Z,20.88
2019-04-10T11:18:04.205Z,20.88
2019-04-10T11:19:01.008Z,20.88
2019-04-10T11:19:57.612Z,20.81
2019-04-10T11:20:59.265Z,20.81
2019-04-10T11:21:52.764Z,20.81
2019-04-10T11:22:49.709Z,20.81
2019-04-10T11:23:46.850Z,20.75
2019-04-10T11:24:44.526Z,20.75
2019-04-10T11:25:41.272Z,20.75
2019-04-10T11:26:37.888Z,20.69
2019-04-10T11:27:35.571Z,20.69
2019-04-10T11:28:33.875Z,20.69
2019-04-10T11:29:31.473Z,20.69
2019-04-10T11:30:28.763Z,20.62
2019-04-10T11:31:25.783Z,20.62
2019-04-10T11:32:22.554Z,20.62
2019-04-10T11:33:20.462Z,20.62
2019-04-10T11:34:18.113Z,20.56
2019-04-10T11:35:15.589Z,20.56
2019-04-10T11:36:12.522Z,20.56
2019-04-10T11:37:23.553Z,20.56
2019-04-10T11:38:08.647Z,20.50
2019-04-10T11:40:05.177Z,20.50
2019-04-10T11:41:03.543Z,20.50
2019-04-10T11:42:01.843Z,20.50
2019-04-10T11:43:02.419Z,20.44
2019-04-10T11:43:57.897Z,20.44
2019-04-10T11:44:55.476Z,20.44
2019-04-10T11:45:54.560Z,20.44
2019-04-10T11:46:52.678Z,20.37
2019-04-10T11:47:51.234Z,20.37
2019-04-10T11:48:48.907Z,20.37
2019-04-10T11:49:47.170Z,20.37
2019-04-10T11:50:44.485Z,20.31
2019-04-10T11:51:41.268Z,20.31
2019-04-10T11:52:42.499Z,20.31
2019-04-10T11:53:39.869Z,20.31
2019-04-10T11:54:40.452Z,20.31
2019-04-10T11:55:43.191Z,20.25
2019-04-10T11:56:33.858Z,20.25
2019-04-10T11:57:32.473Z,20.25
2019-04-10T11:58:29.112Z,20.25
2019-04-10T11:59:26.261Z,20.25
2019-04-10T12:00:26.700Z,20.25
2019-04-10T12:01:22.977Z,20.19
2019-04-10T12:02:21.821Z,20.19
2019-04-10T12:03:18.612Z,20.19
2019-04-10T12:04:19.213Z,20.19
2019-04-10T12:05:18.485Z,20.19
2019-04-10T12:06:13.683Z,20.19
2019-04-10T12:07:25.081Z,20.12
2019-04-10T12:09:57.182Z,20.12
2019-04-10T12:11:15.472Z,20.06
2019-04-10T12:12:09.675Z,20.06
2019-04-10T12:13:06.276Z,20.06
2019-04-10T12:14:03.048Z,20.06
2019-04-10T12:14:59.821Z,20.06
2019-04-10T12:15:56.734Z,20.06
2019-04-10T12:16:53.630Z,20.00
2019-04-10T12:17:50.356Z,20.00
2019-04-10T12:18:47.056Z,20.00
2019-04-10T12:19:44.539Z,20.00
2019-04-10T12:20:41.280Z,20.00
2019-04-10T12:21:38.046Z,20.00